Flight Track Log - Related Links

Times and Time Zones

All times are in EDT time to prevent confusion due to time zone crossing. See the USC422 flight status page for this flight to view local times or setup timezone preferences in your user account.

Time Position Orientation Groundspeed Altitude Reporting Facility
EDT Latitude Longitude Course Direction KTS MPH feet Rate Location/Type
Wed 05:52:52 PM 34.1833 -118.3333 140° Southeast 109 125 2,200  Level Southern California TRACON
Wed 05:53:52 PM 34.1667 -118.3000 121° Southeast 115 132 3,600 1,385 Climbing Southern California TRACON
Wed 05:54:10 PM 34.1653 -118.2972 121° Southeast 113 130 4,000 978 Climbing Los Angeles Center
Wed 05:55:24 PM 34.1542 -118.2600 110° East 114 131 5,100 443 Climbing Los Angeles Center
Wed 05:56:39 PM 34.1328 -118.1872 110° East 147 169 5,100 -41 Level Los Angeles Center
Wed 05:57:52 PM 34.1000 -118.1167 119° Southeast 184 212 5,000 -45 Descending Southern California TRACON
Wed 05:58:00 PM 34.0814 -118.0314 140° Southeast  Level FlightAware Approximate
Wed 05:58:53 PM 34.0833 -118.0500 107° East 184 212 5,000  Level Southern California TRACON
Wed 05:59:53 PM 34.0667 -118.0000 112° Southeast 185 213 5,000  Level Southern California TRACON
Wed 06:00:53 PM 34.0500 -117.9333 107° East 184 212 5,000  Level Southern California TRACON
Wed 06:01:53 PM 34.0333 -117.8833 112° Southeast 184 212 5,000 158 Level Southern California TRACON
Wed 06:02:47 PM 34.0167 -117.8333 112° Southeast 182 209 5,300 800 Climbing Southern California TRACON
Wed 06:03:53 PM 34.0000 -117.7833 112° Southeast 137 158 6,600 762 Climbing Southern California TRACON
Wed 06:04:53 PM 33.9833 -117.7333 112° Southeast 151 174 6,900 200 Climbing Southern California TRACON
Wed 06:05:53 PM 33.9667 -117.6833 112° Southeast 171 197 7,000 50 Climbing Southern California TRACON
Wed 06:06:53 PM 33.9500 -117.6333 112° Southeast 177 204 7,000 347 Level Southern California TRACON
Wed 06:07:54 PM 33.9333 -117.5833 112° Southeast 152 175 7,700 793 Climbing Southern California TRACON
Wed 06:08:54 PM 33.9167 -117.5333 112° Southeast 128 147 8,600 864 Climbing Southern California TRACON
Wed 06:09:59 PM 33.9167 -117.5000 90° East 118 136 9,500 762 Climbing Southern California TRACON
Wed 06:11:00 PM 33.9000 -117.4667 121° Southeast 124 143 10,200 694 Climbing Southern California TRACON
Wed 06:12:00 PM 33.9000 -117.4167 90° East 135 155 10,900 350 Climbing Southern California TRACON
Wed 06:13:00 PM 33.8833 -117.3667 112° Southeast 165 190 10,900 61 Level Southern California TRACON
Wed 06:13:38 PM 33.8669 -117.3431 130° Southeast 165 190 11,000 60 Climbing Los Angeles Center
Wed 06:14:40 PM 33.8458 -117.2861 114° Southeast 184 212 11,000  Level Los Angeles Center
Wed 06:15:42 PM 33.8119 -117.2425 133° Southeast 186 214 11,000 -48 Level Los Angeles Center
Wed 06:16:44 PM 33.7675 -117.1933 137° Southeast 182 209 10,900 -48 Descending Los Angeles Center
Wed 06:17:46 PM 33.7400 -117.1403 122° Southeast 187 215 10,900 48 Level Los Angeles Center
Wed 06:18:49 PM 33.7089 -117.0897 126° Southeast 186 214 11,000  Climbing Los Angeles Center
Wed 06:19:51 PM 33.7047 -117.0264 95° East 190 219 10,900  Descending Los Angeles Center
Wed 06:20:53 PM 33.6997 -116.9644 96° East 188 216 11,000 48 Climbing Los Angeles Center
Wed 06:21:55 PM 33.6958 -116.9019 94° East 188 216 11,000 -48 Level Los Angeles Center
Wed 06:22:57 PM 33.6892 -116.8319 97° East 188 216 10,900 -48 Descending Los Angeles Center
Wed 06:23:59 PM 33.6847 -116.7697 95° East 187 215 10,900  Level Los Angeles Center
Wed 06:25:01 PM 33.6803 -116.7069 95° East 189 217 10,900  Level Los Angeles Center
Wed 06:26:03 PM 33.6731 -116.6456 98° East 186 214 10,900 48 Level Los Angeles Center
Wed 06:27:06 PM 33.6669 -116.5706 96° East 188 216 11,000  Climbing Los Angeles Center
Wed 06:28:08 PM 33.6611 -116.5083 96° East 188 216 10,900 -48 Descending Los Angeles Center
Wed 06:29:10 PM 33.6556 -116.4461 96° East 188 216 10,900  Level Los Angeles Center
Wed 06:30:12 PM 33.6503 -116.3833 96° East 188 216 10,900  Level Los Angeles Center
Wed 06:31:14 PM 33.6439 -116.3219 97° East 187 215 10,900  Level Los Angeles Center
Wed 06:32:16 PM 33.6386 -116.2589 96° East 188 216 10,900 48 Level Los Angeles Center
Wed 06:33:18 PM 33.6317 -116.1831 96° East 189 217 11,000 44 Climbing Los Angeles Center
Wed 06:34:32 PM 33.6278 -116.1200 94° East 190 219 11,000  Level Los Angeles Center
Wed 06:35:35 PM 33.6278 -116.0453 90° East 189 217 11,000  Level Los Angeles Center
Wed 06:36:37 PM 33.6272 -115.9817 91° East 189 217 11,000 -48 Level Los Angeles Center
Wed 06:37:39 PM 33.6253 -115.9183 92° East 190 219 10,900 -145 Descending Los Angeles Center
Wed 06:38:41 PM 33.6244 -115.8550 91° East 191 220 10,700 -387 Descending Los Angeles Center
Wed 06:39:43 PM 33.6228 -115.7728 91° East 202 232 10,100 -581 Descending Los Angeles Center
Wed 06:40:45 PM 33.6219 -115.7036 91° East 206 237 9,500 -532 Descending Los Angeles Center
Wed 06:41:47 PM 33.6197 -115.6356 92° East 206 237 9,000 -290 Descending Los Angeles Center
Wed 06:42:49 PM 33.6183 -115.5839 92° East 203 234 8,900 -48 Descending Los Angeles Center
Wed 06:43:52 PM 33.6167 -115.5131 92° East 187 215 8,900  Level Los Angeles Center
Wed 06:44:54 PM 33.6156 -115.4564 91° East 176 203 8,900  Level Los Angeles Center
Wed 06:45:57 PM 33.6150 -115.3869 91° East 174 200 8,900  Level Los Angeles Center
Wed 06:46:58 PM 33.6128 -115.3264 93° East 179 206 8,900  Level Los Angeles Center
Wed 06:48:00 PM 33.6114 -115.2644 92° East 183 211 8,900  Level Los Angeles Center
Wed 06:49:02 PM 33.6106 -115.2028 91° East 185 213 8,900 48 Level Los Angeles Center
Wed 06:50:04 PM 33.6081 -115.1394 93° East 188 216 9,000  Climbing Los Angeles Center
Wed 06:51:06 PM 33.6050 -115.0775 93° East 187 215 8,900 -48 Descending Los Angeles Center
Wed 06:52:09 PM 33.6039 -115.0028 91° East 187 215 8,900  Level Los Angeles Center
Wed 06:53:10 PM 33.6025 -114.9414 92° East 186 214 8,900  Level Los Angeles Center
Wed 06:54:12 PM 33.6011 -114.8872 92° East 181 208 8,900  Level Los Angeles Center
Wed 06:55:14 PM 33.5992 -114.8192 92° East 186 214 8,900 48 Level Los Angeles Center
Wed 06:56:16 PM 33.5972 -114.7594 92° East 182 209 9,000 44 Climbing Los Angeles Center
Wed 06:57:30 PM 33.5928 -114.6978 95° East 185 213 9,000  Level Los Angeles Center
Wed 06:58:33 PM 33.5883 -114.6128 94° East 183 211 9,000  Level Los Angeles Center
Wed 06:58:52 PM 33.5867 -114.5914 95° East 186 214 9,000  Level Albuquerque Center
Wed 06:59:54 PM 33.5828 -114.5292 94° East 187 215 9,000  Level Albuquerque Center
Wed 07:00:56 PM 33.5808 -114.4689 92° East 182 209 9,000  Level Albuquerque Center
Wed 07:01:57 PM 33.5753 -114.4081 96° East 183 211 9,000  Level Albuquerque Center
Wed 07:02:59 PM 33.5717 -114.3472 94° East 183 211 9,000 -48 Level Albuquerque Center
Wed 07:04:01 PM 33.5667 -114.2878 96° East 180 207 8,900 -48 Descending Albuquerque Center
Wed 07:05:03 PM 33.5633 -114.2269 94° East 182 209 8,900  Level Albuquerque Center
Wed 07:06:04 PM 33.5578 -114.1569 95° East 177 204 8,900  Level Albuquerque Center
Wed 07:07:06 PM 33.5525 -114.0983 96° East 176 203 8,900 48 Level Albuquerque Center
Wed 07:08:08 PM 33.5494 -114.0406 94° East 175 201 9,000 49 Climbing Albuquerque Center
Wed 07:09:09 PM 33.5444 -113.9825 96° East 174 200 9,000 -49 Level Albuquerque Center
Wed 07:10:11 PM 33.5386 -113.9236 97° East 175 201 8,900 -48 Descending Albuquerque Center
Wed 07:11:13 PM 33.5350 -113.8622 94° East 179 206 8,900  Level Albuquerque Center
Wed 07:12:14 PM 33.5297 -113.8011 96° East 182 209 8,900  Level Albuquerque Center
Wed 07:13:16 PM 33.5250 -113.7269 94° East 184 212 8,900 48 Level Albuquerque Center
Wed 07:14:18 PM 33.5214 -113.6658 94° East 184 212 9,000 49 Climbing Albuquerque Center
Wed 07:15:19 PM 33.5167 -113.6056 95° East 184 212 9,000  Level Albuquerque Center
Wed 07:16:21 PM 33.5136 -113.5450 93° East 183 211 9,000 -48 Level Albuquerque Center
Wed 07:17:23 PM 33.5081 -113.4850 96° East 182 209 8,900  Descending Albuquerque Center
Wed 07:18:24 PM 33.5011 -113.4233 98° East 184 212 9,000 49 Climbing Albuquerque Center
Wed 07:19:26 PM 33.4981 -113.3578 93° East 190 219 9,000  Level Albuquerque Center
Wed 07:20:27 PM 33.4922 -113.2961 96° East 188 216 9,000  Level Albuquerque Center
Wed 07:21:29 PM 33.4875 -113.2239 94° East 183 211 9,000  Level Albuquerque Center
Wed 07:22:31 PM 33.4819 -113.1614 96° East 187 215 9,000  Level Albuquerque Center
Wed 07:23:32 PM 33.4764 -113.0992 96° East 188 216 9,000 -195 Level Albuquerque Center
Wed 07:24:34 PM 33.4717 -113.0358 95° East 190 219 8,600 -491 Descending Albuquerque Center
Wed 07:25:22 PM 33.4661 -112.9811 97° East 199 229 8,100 -585 Descending Albuquerque Center
Wed 07:26:37 PM 33.4617 -112.9019 94° East 202 232 7,400 -482 Descending Albuquerque Center
Wed 07:27:39 PM 33.4542 -112.8328 97° East 207 238 7,000 -145 Descending Albuquerque Center
Wed 07:28:41 PM 33.4369 -112.7731 109° East 195 224 7,100 -49 Climbing Albuquerque Center
Wed 07:29:42 PM 33.4100 -112.7072 116° Southeast 186 214 6,900 -49 Descending Albuquerque Center
Wed 07:30:44 PM 33.3900 -112.6514 113° Southeast 185 213 7,000 48 Climbing Albuquerque Center
Wed 07:31:46 PM 33.3686 -112.5953 115° Southeast 185 213 7,000  Level Albuquerque Center
Wed 07:32:47 PM 33.3500 -112.5400 112° Southeast 186 214 7,000  Level Albuquerque Center
Wed 07:33:49 PM 33.3267 -112.4864 118° Southeast 185 213 7,000  Level Albuquerque Center
Wed 07:34:51 PM 33.3081 -112.4303 112° Southeast 183 211 7,000 -98 Level Albuquerque Center
Wed 07:35:52 PM 33.2817 -112.3619 115° Southeast 188 216 6,800 -488 Descending Albuquerque Center
Wed 07:36:54 PM 33.2589 -112.2989 113° Southeast 201 231 6,000 -387 Descending Albuquerque Center
Wed 07:37:56 PM 33.2519 -112.2344 97° East 201 231 6,000  Level Albuquerque Center
Wed 07:38:57 PM 33.2647 -112.1742 76° East 194 223 6,000 -49 Level Albuquerque Center
Wed 07:39:59 PM 33.2819 -112.1156 71° East 189 217 5,900 -387 Descending Albuquerque Center
Wed 07:41:01 PM 33.3025 -112.0600 66° East 186 214 5,200 -488 Descending Albuquerque Center
Wed 07:42:02 PM 33.3233 -111.9864 71° East 192 221 4,900 -537 Descending Albuquerque Center
Wed 07:43:04 PM 33.3725 -111.9828 North 190 219 4,100 -1,016 Descending Albuquerque Center
Wed 07:44:06 PM 33.4131 -111.9828 360° North 166 191 2,800 -1,024 Descending Albuquerque Center
Wed 07:45:07 PM 33.4400 -111.9853 356° North 141 162 2,000 -780 Descending Albuquerque Center
Wed 07:46:09 PM 33.4336 -112.0139 255° West 133 153 1,200 -774 Descending Albuquerque Center

Login

Don't have an account? Register now (free) for customized features, flight alerts, and more!